Time;durP1;ratioP1;P1;durP2;ratioP2;P2;SDS_P1;SDS_P2;PMS_P1;PMS_P2;Temp;Humidity;BMP_temperature;BMP_pressure;BME280_temperature;BME280_humidity;BME280_pressure;Samples;Min_cycle;Max_cycle;Signal;HPM_P1;HPM_P2
2022/01/23 00:02:07;;;;;;;5.28;2.28;;;;;;;;;;5122299;27;20051;-61
2022/01/23 00:04:33;;;;;;;7.97;2.88;;;;;;;;;;5133160;27;20111;-61
2022/01/23 00:07:03;;;;;;;7.13;2.97;;;;;;;;;;5130358;27;20044;-61
2022/01/23 00:09:29;;;;;;;6.13;2.45;;;;;;;;;;5130968;27;20069;-61
2022/01/23 00:11:56;;;;;;;5.85;2.75;;;;;;;;;;5131894;27;20439;-61
2022/01/23 00:19:41;;;;;;;9.85;3.03;;;;;;;;;;5130969;27;20038;-61
2022/01/23 00:22:10;;;;;;;10.25;3.25;;;;;;;;;;5130550;27;20047;-62
2022/01/23 00:32:51;;;;;;;6.43;2.97;;;;;;;;;;5128512;27;20047;-61
2022/01/23 00:35:17;;;;;;;7.03;2.80;;;;;;;;;;5129486;27;20034;-61
2022/01/23 00:37:43;;;;;;;4.53;2.85;;;;;;;;;;5131356;27;20088;-61
2022/01/23 00:40:10;;;;;;;7.20;3.28;;;;;;;;;;5130505;27;20079;-61
2022/01/23 00:42:36;;;;;;;6.72;2.72;;;;;;;;;;5129287;27;20050;-62
2022/01/23 00:45:26;;;;;;;6.55;3.10;;;;;;;;;;5131110;27;20035;-61
2022/01/23 00:47:55;;;;;;;4.13;3.00;;;;;;;;;;5122932;27;20036;-61
2022/01/23 00:50:22;;;;;;;9.65;3.00;;;;;;;;;;5129277;27;20155;-61
2022/01/23 00:52:48;;;;;;;8.52;3.28;;;;;;;;;;5125428;27;20126;-61
2022/01/23 00:55:14;;;;;;;8.40;3.28;;;;;;;;;;5128183;27;20050;-61
2022/01/23 00:57:40;;;;;;;7.20;3.20;;;;;;;;;;5130913;27;20074;-62
2022/01/23 01:00:07;;;;;;;5.18;3.10;;;;;;;;;;5129409;27;20038;-62
2022/01/23 01:02:36;;;;;;;7.65;3.10;;;;;;;;;;5128140;27;20095;-62
2022/01/23 01:05:02;;;;;;;8.85;3.55;;;;;;;;;;5129447;27;20038;-61
2022/01/23 01:07:28;;;;;;;6.03;2.80;;;;;;;;;;5127600;27;20035;-61
2022/01/23 01:09:59;;;;;;;4.53;2.67;;;;;;;;;;5131176;27;20062;-62
2022/01/23 01:12:34;;;;;;;7.07;3.63;;;;;;;;;;5130403;27;20066;-61
2022/01/23 01:15:27;;;;;;;8.18;3.28;;;;;;;;;;5131111;27;20035;-61
2022/01/23 01:31:21;;;;;;;8.63;3.47;;;;;;;;;;5129741;27;20035;-61
2022/01/23 01:33:53;;;;;;;6.72;3.35;;;;;;;;;;5121033;27;20549;-61
2022/01/23 01:38:52;;;;;;;5.78;3.58;;;;;;;;;;5129545;27;20046;-60
2022/01/23 01:41:18;;;;;;;5.40;3.55;;;;;;;;;;5131090;27;20102;-62
2022/01/23 01:43:45;;;;;;;11.45;4.13;;;;;;;;;;5128168;27;20039;-61
2022/01/23 01:46:11;;;;;;;9.82;4.07;;;;;;;;;;5130014;27;20069;-62
2022/01/23 01:48:38;;;;;;;9.50;3.60;;;;;;;;;;5129804;27;20039;-62
2022/01/23 01:51:11;;;;;;;8.77;3.25;;;;;;;;;;5129182;27;20035;-61
2022/01/23 01:53:37;;;;;;;7.22;3.50;;;;;;;;;;5128085;27;20039;-61
2022/01/23 01:56:05;;;;;;;9.27;4.65;;;;;;;;;;5128887;27;20031;-62
2022/01/23 02:09:19;;;;;;;7.13;3.60;;;;;;;;;;5085474;28;20379;-62
2022/01/23 02:17:28;;;;;;;10.43;3.95;;;;;;;;;;5084592;28;20541;-60
2022/01/23 02:55:15;;;;;;;7.07;2.97;;;;;;;;;;5129515;27;20609;-61
2022/01/23 03:00:17;;;;;;;10.48;3.38;;;;;;;;;;5133531;27;20382;-61
2022/01/23 03:02:49;;;;;;;5.30;3.17;;;;;;;;;;5133130;27;20102;-62
2022/01/23 03:05:36;;;;;;;9.50;4.22;;;;;;;;;;5131497;27;20066;-62
2022/01/23 03:11:01;;;;;;;6.68;3.30;;;;;;;;;;5132795;27;20035;-61
2022/01/23 03:25:11;;;;;;;5.45;3.40;;;;;;;;;;5050342;28;20526;-61
2022/01/23 03:30:28;;;;;;;7.85;3.03;;;;;;;;;;5048477;28;20044;-61
2022/01/23 03:32:55;;;;;;;5.47;3.38;;;;;;;;;;5048127;28;20586;-62
2022/01/23 03:35:22;;;;;;;6.72;3.10;;;;;;;;;;5047478;28;20047;-61
2022/01/23 03:37:48;;;;;;;6.07;3.20;;;;;;;;;;5049655;28;20040;-62
2022/01/23 03:40:15;;;;;;;7.50;3.40;;;;;;;;;;5031985;28;20060;-61
2022/01/23 03:42:43;;;;;;;6.97;3.15;;;;;;;;;;5048161;28;20036;-62
2022/01/23 03:50:41;;;;;;;5.55;3.22;;;;;;;;;;5027274;28;20049;-62
2022/01/23 03:53:08;;;;;;;5.68;3.20;;;;;;;;;;5063110;28;20048;-61
2022/01/23 03:55:34;;;;;;;8.18;3.38;;;;;;;;;;5085972;28;20048;-61
2022/01/23 03:58:00;;;;;;;3.70;2.53;;;;;;;;;;5087594;28;20054;-62
2022/01/23 04:00:26;;;;;;;6.07;3.13;;;;;;;;;;5087368;28;20121;-61
2022/01/23 04:02:52;;;;;;;5.72;2.88;;;;;;;;;;5071370;28;20060;-62
2022/01/23 04:05:18;;;;;;;4.80;3.17;;;;;;;;;;5089080;28;20074;-61
2022/01/23 04:07:45;;;;;;;7.53;4.18;;;;;;;;;;5087506;28;20043;-61
2022/01/23 04:10:13;;;;;;;6.63;3.17;;;;;;;;;;5069613;28;20122;-62
2022/01/23 04:15:18;;;;;;;4.90;3.10;;;;;;;;;;5087493;28;20044;-62
2022/01/23 04:20:51;;;;;;;3.97;3.08;;;;;;;;;;5087684;28;20036;-62
2022/01/23 05:01:15;;;;;;;5.60;3.75;;;;;;;;;;5129303;27;20031;-61
2022/01/23 05:04:08;;;;;;;10.77;5.53;;;;;;;;;;5130915;27;20091;-60
2022/01/23 05:06:46;;;;;;;13.10;6.00;;;;;;;;;;5125308;27;20042;-62
2022/01/23 05:09:13;;;;;;;11.45;6.90;;;;;;;;;;5128980;27;20042;-61
2022/01/23 05:11:46;;;;;;;11.45;6.45;;;;;;;;;;5130020;27;20031;-61
2022/01/23 05:14:12;;;;;;;15.23;7.47;;;;;;;;;;5128605;27;20091;-62
2022/01/23 05:16:38;;;;;;;13.73;7.28;;;;;;;;;;5129264;27;20350;-62
2022/01/23 05:19:05;;;;;;;12.07;7.70;;;;;;;;;;5129022;27;20451;-62
2022/01/23 05:24:37;;;;;;;11.10;7.20;;;;;;;;;;5079928;28;20055;-61
2022/01/23 05:27:05;;;;;;;15.48;8.00;;;;;;;;;;5087004;28;20123;-61
2022/01/23 05:29:31;;;;;;;12.48;7.55;;;;;;;;;;5087158;28;20172;-60
2022/01/23 05:31:58;;;;;;;14.32;7.97;;;;;;;;;;5053338;28;20097;-62
2022/01/23 05:34:25;;;;;;;16.65;8.38;;;;;;;;;;5086724;28;20383;-61
2022/01/23 05:36:51;;;;;;;14.40;8.00;;;;;;;;;;5086962;28;20118;-61
2022/01/23 05:39:21;;;;;;;19.33;8.95;;;;;;;;;;5087861;28;20036;-60
2022/01/23 05:41:47;;;;;;;13.82;9.07;;;;;;;;;;5086968;28;20128;-61
2022/01/23 05:44:14;;;;;;;16.13;8.55;;;;;;;;;;5086901;28;20498;-61
2022/01/23 05:46:40;;;;;;;15.25;8.50;;;;;;;;;;5083896;28;20039;-61
2022/01/23 05:49:06;;;;;;;13.68;8.80;;;;;;;;;;5087470;28;20134;-61
2022/01/23 05:51:32;;;;;;;12.55;8.02;;;;;;;;;;5084554;28;20067;-61
2022/01/23 05:53:58;;;;;;;14.02;8.32;;;;;;;;;;5086083;28;20108;-61
2022/01/23 05:56:24;;;;;;;13.27;8.07;;;;;;;;;;5085480;28;20040;-60
2022/01/23 05:58:50;;;;;;;13.45;7.78;;;;;;;;;;5085432;28;20083;-61
2022/01/23 06:01:16;;;;;;;16.67;8.15;;;;;;;;;;5127342;27;20536;-61
2022/01/23 06:03:42;;;;;;;12.98;7.82;;;;;;;;;;5128716;27;20031;-61
2022/01/23 06:06:08;;;;;;;14.27;7.93;;;;;;;;;;5129803;27;20568;-61
2022/01/23 06:08:34;;;;;;;14.32;8.25;;;;;;;;;;5130125;27;20038;-62
2022/01/23 06:11:00;;;;;;;13.43;7.20;;;;;;;;;;5126959;27;20046;-61
2022/01/23 06:13:27;;;;;;;12.73;7.80;;;;;;;;;;5129916;27;20043;-61
2022/01/23 06:15:54;;;;;;;19.05;7.68;;;;;;;;;;5128208;27;20493;-61
2022/01/23 06:18:20;;;;;;;16.48;7.88;;;;;;;;;;5128668;27;20050;-62
2022/01/23 06:20:46;;;;;;;14.63;7.75;;;;;;;;;;5125682;27;20043;-60
2022/01/23 06:23:13;;;;;;;14.70;7.85;;;;;;;;;;5128325;27;20918;-60
2022/01/23 06:25:43;;;;;;;19.80;8.38;;;;;;;;;;5129438;27;20426;-62
2022/01/23 06:28:09;;;;;;;15.63;7.03;;;;;;;;;;5128449;27;20091;-62
2022/01/23 06:30:36;;;;;;;10.93;7.03;;;;;;;;;;5129277;27;20038;-61
2022/01/23 06:33:02;;;;;;;16.05;7.57;;;;;;;;;;5126445;27;20035;-62
2022/01/23 06:35:29;;;;;;;15.50;7.80;;;;;;;;;;5128892;27;20043;-64
2022/01/23 06:37:55;;;;;;;15.60;8.02;;;;;;;;;;5127535;27;20043;-62
2022/01/23 06:40:21;;;;;;;13.45;7.28;;;;;;;;;;5116658;28;20053;-64
2022/01/23 06:42:47;;;;;;;15.02;7.68;;;;;;;;;;5119504;27;20994;-64
2022/01/23 06:45:13;;;;;;;12.70;7.28;;;;;;;;;;5124534;28;20039;-63
2022/01/23 06:47:39;;;;;;;16.83;7.45;;;;;;;;;;5122727;28;20039;-63
2022/01/23 06:50:06;;;;;;;13.75;7.60;;;;;;;;;;5118933;28;20071;-61
2022/01/23 06:52:32;;;;;;;11.50;6.85;;;;;;;;;;5127060;28;20035;-64
2022/01/23 06:54:58;;;;;;;11.65;6.75;;;;;;;;;;5128321;28;20031;-61
2022/01/23 06:57:24;;;;;;;13.02;6.88;;;;;;;;;;5124346;28;20543;-64
2022/01/23 06:59:50;;;;;;;12.68;6.93;;;;;;;;;;5127257;28;20362;-61
2022/01/23 07:02:16;;;;;;;15.45;7.22;;;;;;;;;;5129088;28;20039;-61
2022/01/23 07:04:43;;;;;;;14.00;7.75;;;;;;;;;;5128421;28;20043;-64
2022/01/23 07:07:09;;;;;;;11.57;7.20;;;;;;;;;;5127258;28;20107;-62
2022/01/23 07:09:35;;;;;;;12.65;7.13;;;;;;;;;;5129096;28;20760;-63
2022/01/23 07:12:01;;;;;;;17.45;7.00;;;;;;;;;;5128491;28;20027;-61
2022/01/23 07:14:27;;;;;;;13.13;6.72;;;;;;;;;;5128645;28;20125;-62
2022/01/23 07:16:53;;;;;;;10.73;6.93;;;;;;;;;;5129315;28;20042;-62
2022/01/23 07:19:19;;;;;;;12.90;6.88;;;;;;;;;;5128749;28;20035;-62
2022/01/23 07:21:45;;;;;;;11.75;6.40;;;;;;;;;;5127782;27;20516;-64
2022/01/23 07:24:11;;;;;;;11.77;6.88;;;;;;;;;;5123091;27;20043;-64
2022/01/23 07:26:37;;;;;;;11.60;6.75;;;;;;;;;;5132008;27;20050;-65
2022/01/23 07:29:05;;;;;;;15.48;7.07;;;;;;;;;;5131652;27;20118;-63
2022/01/23 07:34:17;;;;;;;15.40;7.40;;;;;;;;;;5088056;28;20430;-63
2022/01/23 07:36:43;;;;;;;16.63;7.38;;;;;;;;;;5082873;28;20117;-63
2022/01/23 07:39:09;;;;;;;13.23;7.97;;;;;;;;;;5087266;28;20531;-64
2022/01/23 07:41:35;;;;;;;11.55;6.40;;;;;;;;;;5083926;28;20119;-63
2022/01/23 07:44:01;;;;;;;16.83;7.13;;;;;;;;;;5088013;28;20048;-65
2022/01/23 07:46:27;;;;;;;14.25;7.13;;;;;;;;;;5089244;28;20475;-64
2022/01/23 07:48:53;;;;;;;12.55;6.80;;;;;;;;;;5087185;28;20075;-65
2022/01/23 07:51:20;;;;;;;11.88;6.47;;;;;;;;;;5088139;28;20376;-62
2022/01/23 07:53:46;;;;;;;12.98;7.03;;;;;;;;;;5087454;28;20040;-63
2022/01/23 07:56:12;;;;;;;13.82;7.78;;;;;;;;;;5088051;28;20062;-62
2022/01/23 07:58:38;;;;;;;11.93;6.53;;;;;;;;;;5089734;28;20132;-63
2022/01/23 08:01:04;;;;;;;13.20;6.68;;;;;;;;;;5075256;28;20593;-62
2022/01/23 08:03:30;;;;;;;10.18;7.50;;;;;;;;;;5089775;28;20174;-62
2022/01/23 08:05:56;;;;;;;13.57;6.72;;;;;;;;;;5089042;28;20040;-63
2022/01/23 08:08:22;;;;;;;12.45;6.78;;;;;;;;;;5089308;28;20036;-63
2022/01/23 08:10:48;;;;;;;11.35;6.78;;;;;;;;;;5099365;27;20091;-63
2022/01/23 08:13:14;;;;;;;12.77;6.57;;;;;;;;;;5126198;27;20141;-64
2022/01/23 08:15:40;;;;;;;12.07;7.28;;;;;;;;;;5125584;27;20043;-64
2022/01/23 08:18:06;;;;;;;12.27;6.80;;;;;;;;;;5131083;27;20427;-64
2022/01/23 08:20:33;;;;;;;11.60;6.75;;;;;;;;;;5126713;27;20397;-64
2022/01/23 08:23:01;;;;;;;13.90;7.22;;;;;;;;;;5117732;27;20131;-63
2022/01/23 08:25:28;;;;;;;12.80;7.13;;;;;;;;;;5131901;27;20084;-63
2022/01/23 08:27:54;;;;;;;13.48;9.02;;;;;;;;;;5122378;27;20027;-63
2022/01/23 08:30:21;;;;;;;12.88;7.72;;;;;;;;;;5131312;27;20131;-64
2022/01/23 08:32:47;;;;;;;14.18;7.22;;;;;;;;;;5129394;27;20110;-62
2022/01/23 08:35:14;;;;;;;14.02;8.32;;;;;;;;;;5130268;27;20146;-63
2022/01/23 08:37:40;;;;;;;11.77;7.07;;;;;;;;;;5131721;27;20031;-64
2022/01/23 08:40:16;;;;;;;13.25;7.35;;;;;;;;;;5129797;27;20398;-63
2022/01/23 08:42:42;;;;;;;12.15;7.07;;;;;;;;;;5131605;27;20118;-63
2022/01/23 08:45:08;;;;;;;14.10;6.50;;;;;;;;;;5117317;27;20043;-63
2022/01/23 08:47:34;;;;;;;13.07;6.93;;;;;;;;;;5126858;27;20485;-64
2022/01/23 08:50:00;;;;;;;12.73;6.80;;;;;;;;;;5129437;27;20363;-63
2022/01/23 08:52:26;;;;;;;10.95;6.63;;;;;;;;;;5121311;27;20038;-63
2022/01/23 08:54:56;;;;;;;11.88;7.07;;;;;;;;;;5131605;27;20039;-63
2022/01/23 08:57:23;;;;;;;12.77;7.20;;;;;;;;;;5124973;27;20057;-62
2022/01/23 08:59:49;;;;;;;10.30;6.90;;;;;;;;;;5130477;27;20125;-62
2022/01/23 09:02:16;;;;;;;17.40;6.80;;;;;;;;;;5131958;27;20030;-63
2022/01/23 09:04:42;;;;;;;10.57;6.65;;;;;;;;;;5129864;27;20427;-63
2022/01/23 09:07:08;;;;;;;11.20;7.15;;;;;;;;;;5130300;27;20043;-61
2022/01/23 09:09:37;;;;;;;13.65;6.25;;;;;;;;;;5131246;27;20039;-61
2022/01/23 09:12:08;;;;;;;13.10;6.65;;;;;;;;;;5114685;27;20051;-61
2022/01/23 09:14:35;;;;;;;9.13;5.78;;;;;;;;;;5132599;27;20066;-61
2022/01/23 09:17:01;;;;;;;12.48;6.35;;;;;;;;;;5118008;27;20067;-60
2022/01/23 09:19:28;;;;;;;11.50;6.40;;;;;;;;;;5124298;27;20035;-60
2022/01/23 09:21:54;;;;;;;12.27;6.78;;;;;;;;;;5126681;27;20039;-62
2022/01/23 09:24:21;;;;;;;11.52;7.05;;;;;;;;;;5131484;27;20054;-63
2022/01/23 09:26:53;;;;;;;12.95;7.10;;;;;;;;;;5130007;27;20065;-63
2022/01/23 09:29:43;;;;;;;13.10;6.33;;;;;;;;;;5127313;27;20497;-62
2022/01/23 09:32:12;;;;;;;11.95;7.40;;;;;;;;;;5129966;27;20078;-61
2022/01/23 09:34:40;;;;;;;10.98;6.47;;;;;;;;;;5131144;27;20043;-63
2022/01/23 09:37:07;;;;;;;9.30;6.35;;;;;;;;;;5131636;27;20066;-62
2022/01/23 09:39:34;;;;;;;10.45;6.50;;;;;;;;;;5131856;27;20043;-63
2022/01/23 09:42:05;;;;;;;11.68;6.50;;;;;;;;;;5132025;27;20180;-61
2022/01/23 09:44:32;;;;;;;11.40;6.93;;;;;;;;;;5131002;27;20043;-60
2022/01/23 09:46:58;;;;;;;10.38;7.25;;;;;;;;;;5130656;27;20035;-59
2022/01/23 09:49:25;;;;;;;9.35;6.35;;;;;;;;;;5128025;27;20160;-62
2022/01/23 09:51:52;;;;;;;11.02;6.35;;;;;;;;;;5116026;27;20053;-60
2022/01/23 09:54:19;;;;;;;8.82;6.28;;;;;;;;;;5125749;27;20031;-62
2022/01/23 09:56:45;;;;;;;8.80;6.22;;;;;;;;;;5130999;27;20034;-61
2022/01/23 09:59:13;;;;;;;8.50;6.13;;;;;;;;;;5131054;27;20481;-61
2022/01/23 10:01:41;;;;;;;11.00;6.53;;;;;;;;;;5131443;27;20117;-63
2022/01/23 10:04:07;;;;;;;10.27;6.63;;;;;;;;;;5131084;27;20061;-62
2022/01/23 10:06:33;;;;;;;11.95;6.82;;;;;;;;;;5114500;27;20096;-63
2022/01/23 10:08:59;;;;;;;8.32;5.43;;;;;;;;;;5130842;27;20038;-63
2022/01/23 10:11:26;;;;;;;8.30;5.78;;;;;;;;;;5130965;27;20039;-62
2022/01/23 10:13:52;;;;;;;8.45;5.72;;;;;;;;;;5131233;27;20043;-63
2022/01/23 10:16:19;;;;;;;8.80;5.78;;;;;;;;;;5130977;27;20069;-63
2022/01/23 10:18:45;;;;;;;8.15;5.38;;;;;;;;;;5130430;27;20042;-64
2022/01/23 10:21:11;;;;;;;7.35;5.25;;;;;;;;;;5113156;27;20039;-61
2022/01/23 10:23:37;;;;;;;8.43;5.15;;;;;;;;;;5130821;27;20066;-63
2022/01/23 10:26:04;;;;;;;6.85;4.50;;;;;;;;;;5113447;27;20797;-63
2022/01/23 10:28:32;;;;;;;6.60;4.20;;;;;;;;;;5130607;27;20118;-63
2022/01/23 10:31:01;;;;;;;6.50;4.53;;;;;;;;;;5129372;27;20045;-62
2022/01/23 10:33:29;;;;;;;9.15;4.65;;;;;;;;;;5130622;27;20050;-63
2022/01/23 10:36:05;;;;;;;6.85;4.38;;;;;;;;;;5130660;27;20177;-63
2022/01/23 10:38:40;;;;;;;7.57;4.80;;;;;;;;;;5130513;27;20031;-63
2022/01/23 10:41:44;;;;;;;7.85;4.20;;;;;;;;;;5128920;28;20506;-62
2022/01/23 10:49:56;;;;;;;6.90;4.32;;;;;;;;;;5130980;28;20042;-61
2022/01/23 10:52:34;;;;;;;6.10;3.83;;;;;;;;;;5114162;28;20043;-62
2022/01/23 10:55:01;;;;;;;7.45;4.63;;;;;;;;;;5095348;28;20153;-61
2022/01/23 10:57:33;;;;;;;4.63;3.72;;;;;;;;;;5131676;27;20047;-63
2022/01/23 11:00:02;;;;;;;;;;;;;;;;;;5135298;27;20078;-64
2022/01/23 11:02:29;;;;;;;4.50;3.25;;;;;;;;;;5133700;27;19920;-63
2022/01/23 11:04:55;;;;;;;4.30;2.72;;;;;;;;;;5134810;27;20039;-62
2022/01/23 11:07:21;;;;;;;3.08;2.20;;;;;;;;;;5116198;27;20054;-62
2022/01/23 11:09:47;;;;;;;5.07;2.80;;;;;;;;;;5134494;27;20035;-63
2022/01/23 11:12:44;;;;;;;5.18;3.00;;;;;;;;;;5133499;27;20038;-63
2022/01/23 11:17:59;;;;;;;4.72;3.33;;;;;;;;;;5130552;27;20077;-63
2022/01/23 11:20:29;;;;;;;6.72;3.35;;;;;;;;;;5129323;27;21107;-62
2022/01/23 11:23:03;;;;;;;4.82;2.95;;;;;;;;;;5134359;27;20031;-63
2022/01/23 11:25:29;;;;;;;4.65;3.22;;;;;;;;;;5134183;27;20034;-61
2022/01/23 11:28:01;;;;;;;4.18;2.75;;;;;;;;;;5134439;27;20163;-61
2022/01/23 11:30:41;;;;;;;4.95;2.72;;;;;;;;;;5120723;27;20043;-63
2022/01/23 11:33:09;;;;;;;2.10;1.85;;;;;;;;;;5133193;27;20405;-63
2022/01/23 11:35:35;;;;;;;3.67;1.80;;;;;;;;;;5134237;27;20035;-62
2022/01/23 11:38:02;;;;;;;2.35;1.90;;;;;;;;;;5134269;27;20035;-63
2022/01/23 11:53:58;;;;;;;2.83;2.00;;;;;;;;;;5132981;27;20148;-62
2022/01/23 11:56:33;;;;;;;3.47;1.75;;;;;;;;;;5127737;27;20035;-61
2022/01/23 11:59:02;;;;;;;2.35;1.60;;;;;;;;;;5132810;27;20062;-62
2022/01/23 12:01:28;;;;;;;1.63;1.25;;;;;;;;;;5133083;27;20031;-62
2022/01/23 12:04:11;;;;;;;1.38;0.82;;;;;;;;;;5133745;27;20050;-62
2022/01/23 12:06:39;;;;;;;1.10;0.90;;;;;;;;;;5115682;27;20515;-62
2022/01/23 12:09:11;;;;;;;1.80;1.23;;;;;;;;;;5133177;27;20393;-62
2022/01/23 12:16:59;;;;;;;2.75;1.80;;;;;;;;;;5132339;27;20130;-63
2022/01/23 12:19:26;;;;;;;3.25;2.00;;;;;;;;;;5133555;27;20514;-62
2022/01/23 12:21:54;;;;;;;1.95;1.20;;;;;;;;;;5133736;27;20130;-61
2022/01/23 12:24:22;;;;;;;1.17;0.98;;;;;;;;;;5133302;27;20035;-62
2022/01/23 12:26:49;;;;;;;4.47;0.98;;;;;;;;;;5133467;27;20110;-63
2022/01/23 12:29:16;;;;;;;1.63;0.80;;;;;;;;;;5133498;27;20046;-64
2022/01/23 12:31:43;;;;;;;2.00;0.73;;;;;;;;;;5133445;27;20031;-63
2022/01/23 12:34:09;;;;;;;0.82;0.57;;;;;;;;;;5127654;27;20035;-62
2022/01/23 12:36:37;;;;;;;3.10;0.73;;;;;;;;;;5132740;27;20114;-64
2022/01/23 12:39:09;;;;;;;1.15;0.90;;;;;;;;;;5132770;27;20051;-64
2022/01/23 12:41:36;;;;;;;1.17;0.70;;;;;;;;;;5132630;27;20071;-63
2022/01/23 12:44:10;;;;;;;0.93;0.30;;;;;;;;;;5131338;27;20384;-63
2022/01/23 12:46:48;;;;;;;0.32;0.32;;;;;;;;;;5132816;27;20055;-61
2022/01/23 12:49:28;;;;;;;1.38;0.40;;;;;;;;;;5132626;27;20039;-62
2022/01/23 12:51:57;;;;;;;1.70;0.40;;;;;;;;;;5126806;27;20120;-62
2022/01/23 12:54:25;;;;;;;0.63;0.50;;;;;;;;;;5098595;27;20134;-61
2022/01/23 12:56:52;;;;;;;1.13;0.52;;;;;;;;;;5132518;27;20035;-59
2022/01/23 12:59:24;;;;;;;1.25;0.60;;;;;;;;;;5132382;27;20516;-61
2022/01/23 13:01:56;;;;;;;;;;;;;;;;;;5132732;27;20115;-61
2022/01/23 13:04:22;;;;;;;1.77;1.17;;;;;;;;;;5131948;27;20419;-61
2022/01/23 13:06:56;;;;;;;1.17;0.88;;;;;;;;;;5126846;27;20288;-62
2022/01/23 13:09:28;;;;;;;2.20;1.10;;;;;;;;;;5118006;27;20099;-62
2022/01/23 13:12:14;;;;;;;5.07;2.03;;;;;;;;;;5131963;27;20061;-62
2022/01/23 13:14:43;;;;;;;1.80;1.50;;;;;;;;;;5132095;27;20396;-61
2022/01/23 13:17:37;;;;;;;5.22;1.48;;;;;;;;;;5132433;27;20047;-63
2022/01/23 13:30:54;;;;;;;3.67;1.40;;;;;;;;;;5131752;27;20130;-61
2022/01/23 13:33:21;;;;;;;2.33;1.40;;;;;;;;;;5132067;27;20409;-60
2022/01/23 13:35:51;;;;;;;2.33;1.10;;;;;;;;;;5120932;27;20043;-62
2022/01/23 13:38:18;;;;;;;2.30;1.50;;;;;;;;;;5131641;27;20043;-60
2022/01/23 13:40:45;;;;;;;1.55;1.20;;;;;;;;;;5130578;27;20087;-61
2022/01/23 13:59:12;;;;;;;3.45;1.73;;;;;;;;;;5108945;27;20439;-60
2022/01/23 14:01:53;;;;;;;2.33;1.80;;;;;;;;;;5091233;28;20475;-60
2022/01/23 14:04:20;;;;;;;4.28;1.77;;;;;;;;;;5104984;27;20051;-61
2022/01/23 14:06:46;;;;;;;2.78;1.75;;;;;;;;;;5108401;28;20093;-62
2022/01/23 14:09:13;;;;;;;4.28;1.60;;;;;;;;;;5108549;27;20184;-62
2022/01/23 14:11:40;;;;;;;3.20;1.83;;;;;;;;;;5091030;28;20035;-63
2022/01/23 14:14:25;;;;;;;2.13;1.10;;;;;;;;;;5106605;28;20051;-61
2022/01/23 14:16:52;;;;;;;2.38;1.45;;;;;;;;;;5091201;28;20082;-63
2022/01/23 14:19:23;;;;;;;7.00;2.00;;;;;;;;;;5108112;28;20035;-62
2022/01/23 14:21:50;;;;;;;2.40;1.85;;;;;;;;;;5105588;28;20047;-63
2022/01/23 14:24:20;;;;;;;4.47;2.13;;;;;;;;;;5107797;28;20135;-63
2022/01/23 14:27:00;;;;;;;3.38;2.15;;;;;;;;;;5108062;28;20028;-63
2022/01/23 14:29:26;;;;;;;3.75;1.85;;;;;;;;;;5104746;28;20043;-62
2022/01/23 14:32:16;;;;;;;2.40;1.70;;;;;;;;;;5110161;27;20589;-62
2022/01/23 14:34:42;;;;;;;3.50;1.60;;;;;;;;;;5107645;28;20114;-62
2022/01/23 14:37:08;;;;;;;2.03;1.30;;;;;;;;;;5123864;28;20094;-62
2022/01/23 14:39:35;;;;;;;1.83;1.20;;;;;;;;;;5134061;27;20046;-61
2022/01/23 14:42:11;;;;;;;1.67;0.95;;;;;;;;;;5130817;27;20039;-62
2022/01/23 14:44:37;;;;;;;1.70;1.10;;;;;;;;;;5120392;27;20086;-62
2022/01/23 14:47:03;;;;;;;4.25;1.30;;;;;;;;;;5130782;27;20038;-61
2022/01/23 14:49:31;;;;;;;1.23;1.00;;;;;;;;;;5130975;27;20031;-61
2022/01/23 14:51:58;;;;;;;4.15;0.80;;;;;;;;;;5130917;27;20245;-61
2022/01/23 14:54:25;;;;;;;3.17;0.90;;;;;;;;;;5130712;28;20530;-62
2022/01/23 14:56:51;;;;;;;1.10;0.90;;;;;;;;;;5132474;27;20493;-62
2022/01/23 14:59:17;;;;;;;2.60;0.80;;;;;;;;;;5130288;28;20047;-62
2022/01/23 15:01:46;;;;;;;2.10;1.00;;;;;;;;;;5132870;27;20042;-62
2022/01/23 15:04:12;;;;;;;1.67;0.90;;;;;;;;;;5130181;28;20043;-61
2022/01/23 15:06:44;;;;;;;1.67;0.63;;;;;;;;;;5129076;27;20042;-62
2022/01/23 15:09:11;;;;;;;1.92;0.80;;;;;;;;;;5130121;27;20047;-62
2022/01/23 15:11:37;;;;;;;0.98;0.80;;;;;;;;;;5132249;27;20034;-62
2022/01/23 15:14:04;;;;;;;1.48;1.10;;;;;;;;;;5132630;27;20103;-62
2022/01/23 15:16:30;;;;;;;1.67;1.00;;;;;;;;;;5114972;28;20166;-61
2022/01/23 15:18:56;;;;;;;4.07;0.90;;;;;;;;;;5130510;28;20447;-62
2022/01/23 15:21:22;;;;;;;2.58;1.30;;;;;;;;;;5131448;27;20530;-62
2022/01/23 15:23:55;;;;;;;2.00;1.20;;;;;;;;;;5130282;28;20039;-61
2022/01/23 15:26:21;;;;;;;;;;;;;;;;;;5131710;27;20114;-62
2022/01/23 15:28:47;;;;;;;1.80;1.00;;;;;;;;;;5129168;28;20010;-62
2022/01/23 15:31:13;;;;;;;2.45;0.93;;;;;;;;;;5117840;27;20443;-63
2022/01/23 15:33:39;;;;;;;2.33;1.15;;;;;;;;;;5130460;27;20043;-63
2022/01/23 15:36:05;;;;;;;2.47;1.20;;;;;;;;;;5128714;27;20120;-63
2022/01/23 15:38:31;;;;;;;3.05;1.15;;;;;;;;;;5127918;27;20118;-65
2022/01/23 15:40:57;;;;;;;1.70;1.40;;;;;;;;;;5130167;28;20439;-63
2022/01/23 15:43:23;;;;;;;3.67;1.30;;;;;;;;;;5131051;27;20039;-62
2022/01/23 15:45:52;;;;;;;3.35;1.30;;;;;;;;;;5134060;27;20096;-63
2022/01/23 15:48:18;;;;;;;2.10;1.05;;;;;;;;;;5132630;27;20084;-61
2022/01/23 15:50:44;;;;;;;2.22;1.55;;;;;;;;;;5133427;27;20034;-64
2022/01/23 15:53:10;;;;;;;3.35;1.30;;;;;;;;;;5136077;27;20962;-61
2022/01/23 15:55:36;;;;;;;1.40;1.30;;;;;;;;;;5132174;27;20371;-63
2022/01/23 15:58:03;;;;;;;2.63;1.42;;;;;;;;;;5133525;27;20054;-62
2022/01/23 16:00:31;;;;;;;2.33;1.17;;;;;;;;;;5132701;27;20103;-62
2022/01/23 16:02:57;;;;;;;2.55;1.80;;;;;;;;;;5135673;27;20035;-61
2022/01/23 16:05:23;;;;;;;6.55;3.88;;;;;;;;;;5133472;27;20062;-62
2022/01/23 16:07:49;;;;;;;10.70;5.97;;;;;;;;;;5133554;27;20035;-62
2022/01/23 16:10:16;;;;;;;5.47;4.13;;;;;;;;;;5130413;27;20039;-62
2022/01/23 16:12:42;;;;;;;2.88;2.05;;;;;;;;;;5134582;27;20057;-62
2022/01/23 16:15:11;;;;;;;2.33;1.50;;;;;;;;;;5133170;27;20043;-63
2022/01/23 16:17:38;;;;;;;2.17;1.65;;;;;;;;;;5134990;27;20050;-63
2022/01/23 16:20:05;;;;;;;2.65;1.70;;;;;;;;;;5132927;27;20390;-63
2022/01/23 16:22:31;;;;;;;2.38;1.60;;;;;;;;;;5131659;27;20106;-62
2022/01/23 16:24:57;;;;;;;4.55;1.80;;;;;;;;;;5135193;27;20122;-61
2022/01/23 16:27:23;;;;;;;3.15;2.10;;;;;;;;;;5116906;27;20039;-61
2022/01/23 16:29:49;;;;;;;2.75;1.95;;;;;;;;;;5133102;27;20035;-62
2022/01/23 16:32:15;;;;;;;4.05;1.60;;;;;;;;;;5130964;27;20031;-60
2022/01/23 16:34:41;;;;;;;2.53;1.75;;;;;;;;;;5132859;27;20389;-61
2022/01/23 16:37:08;;;;;;;4.38;1.73;;;;;;;;;;5130952;27;20857;-61
2022/01/23 16:39:34;;;;;;;6.35;2.45;;;;;;;;;;5132812;27;20043;-61
2022/01/23 16:42:00;;;;;;;10.45;4.93;;;;;;;;;;5132948;27;20039;-63
2022/01/23 16:44:27;;;;;;;9.00;4.65;;;;;;;;;;5132900;27;20043;-64
2022/01/23 16:46:53;;;;;;;23.60;8.40;;;;;;;;;;5134205;27;20073;-60
2022/01/23 16:49:20;;;;;;;19.05;8.43;;;;;;;;;;5133051;27;20043;-63
2022/01/23 16:51:46;;;;;;;25.08;8.05;;;;;;;;;;5132875;27;20043;-60
2022/01/23 16:54:13;;;;;;;20.20;6.20;;;;;;;;;;5132816;27;20039;-62
2022/01/23 16:56:40;;;;;;;30.40;7.95;;;;;;;;;;5132356;27;20035;-62
2022/01/23 16:59:08;;;;;;;11.63;4.22;;;;;;;;;;5133373;27;20107;-61
2022/01/23 17:01:35;;;;;;;3.58;2.05;;;;;;;;;;5132719;27;20047;-61
2022/01/23 17:04:01;;;;;;;3.10;2.55;;;;;;;;;;5113686;27;20043;-62
2022/01/23 17:06:29;;;;;;;4.57;3.00;;;;;;;;;;5132990;27;20385;-63
2022/01/23 17:08:55;;;;;;;3.25;1.70;;;;;;;;;;5129137;27;20043;-63
2022/01/23 17:11:21;;;;;;;2.85;2.00;;;;;;;;;;5132819;27;20400;-63
2022/01/23 17:13:47;;;;;;;4.35;2.03;;;;;;;;;;5129531;27;20031;-63
2022/01/23 17:16:14;;;;;;;2.20;1.90;;;;;;;;;;5132051;27;20519;-61
2022/01/23 17:18:42;;;;;;;2.50;1.73;;;;;;;;;;5129278;27;20039;-62
2022/01/23 17:21:08;;;;;;;1.85;1.50;;;;;;;;;;5127959;27;20555;-63
2022/01/23 17:23:34;;;;;;;3.03;1.70;;;;;;;;;;5132130;27;20039;-63
2022/01/23 17:26:01;;;;;;;2.72;1.67;;;;;;;;;;5131780;27;20035;-62
2022/01/23 17:28:27;;;;;;;2.60;1.80;;;;;;;;;;5133085;27;20027;-63
2022/01/23 17:30:53;;;;;;;2.88;1.90;;;;;;;;;;5130106;27;20064;-63
2022/01/23 17:33:19;;;;;;;4.35;3.08;;;;;;;;;;5113096;27;20070;-63
2022/01/23 17:35:45;;;;;;;4.25;3.00;;;;;;;;;;5131987;27;20401;-61
2022/01/23 17:38:12;;;;;;;4.53;3.35;;;;;;;;;;5131770;27;20039;-61
2022/01/23 17:40:38;;;;;;;4.38;2.50;;;;;;;;;;5129932;27;20528;-63
2022/01/23 17:43:04;;;;;;;2.58;2.13;;;;;;;;;;5131283;27;20035;-64
2022/01/23 17:45:52;;;;;;;4.32;2.97;;;;;;;;;;5132910;27;20031;-62
2022/01/23 17:51:04;;;;;;;4.72;2.95;;;;;;;;;;5129768;27;20398;-63
2022/01/23 17:53:31;;;;;;;5.88;3.28;;;;;;;;;;5131038;27;20062;-62
2022/01/23 17:55:57;;;;;;;6.75;2.80;;;;;;;;;;5131496;27;20072;-63
2022/01/23 17:58:23;;;;;;;5.15;2.67;;;;;;;;;;5130217;27;20054;-63
2022/01/23 18:00:50;;;;;;;6.32;3.95;;;;;;;;;;5112093;27;20054;-62
2022/01/23 18:03:16;;;;;;;6.25;4.10;;;;;;;;;;5128559;27;20378;-64
2022/01/23 18:05:44;;;;;;;7.25;3.80;;;;;;;;;;5131066;27;20385;-62
2022/01/23 18:08:10;;;;;;;5.25;3.33;;;;;;;;;;5132148;27;20043;-61
2022/01/23 18:10:36;;;;;;;6.38;3.40;;;;;;;;;;5131110;27;20031;-63
2022/01/23 18:13:05;;;;;;;5.88;3.65;;;;;;;;;;5119889;27;20027;-61
2022/01/23 18:15:32;;;;;;;6.88;4.30;;;;;;;;;;5112744;27;20046;-63
2022/01/23 18:17:58;;;;;;;5.95;4.28;;;;;;;;;;5120504;27;20046;-63